Time;durP1;ratioP1;P1;durP2;ratioP2;P2;SDS_P1;SDS_P2;PMS_P1;PMS_P2;Temp;Humidity;BMP_temperature;BMP_pressure;BME280_temperature;BME280_humidity;BME280_pressure;Samples;Min_cycle;Max_cycle;Signal;HPM_P1;HPM_P2
2022/05/28 00:00:53;;;;;;;2.10;1.60;;;15.40;98.00;;;;;;5031381;28;20524;-66
2022/05/28 00:03:20;;;;;;;2.70;1.63;;;15.40;98.00;;;;;;5031223;28;20460;-66
2022/05/28 00:05:48;;;;;;;1.87;1.53;;;15.40;98.00;;;;;;5031210;28;20472;-66
2022/05/28 00:08:16;;;;;;;1.50;1.40;;;15.30;98.00;;;;;;5013610;28;20458;-67
2022/05/28 00:10:44;;;;;;;1.83;1.60;;;15.30;98.00;;;;;;5032202;28;20472;-66
2022/05/28 00:13:13;;;;;;;1.93;1.57;;;15.20;98.00;;;;;;5032379;28;20513;-66
2022/05/28 00:15:41;;;;;;;1.47;1.43;;;14.90;98.00;;;;;;5031597;28;20473;-67
2022/05/28 00:18:09;;;;;;;2.53;1.90;;;14.90;98.00;;;;;;5031394;28;20462;-67
2022/05/28 00:20:38;;;;;;;1.77;1.50;;;14.80;98.00;;;;;;5032522;28;20948;-66
2022/05/28 00:23:05;;;;;;;1.97;1.50;;;14.70;98.00;;;;;;5032107;28;20951;-67
2022/05/28 00:25:33;;;;;;;1.80;1.70;;;14.70;98.00;;;;;;5031430;28;20460;-66
2022/05/28 00:28:00;;;;;;;1.77;1.70;;;14.60;98.00;;;;;;5031458;28;20871;-67
2022/05/28 00:30:29;;;;;;;1.60;1.40;;;14.80;98.00;;;;;;5031138;28;20515;-66
2022/05/28 00:32:56;;;;;;;1.93;1.77;;;14.80;98.00;;;;;;5030948;28;20482;-66
2022/05/28 00:35:23;;;;;;;2.27;1.70;;;14.70;98.00;;;;;;5031124;28;20824;-66
2022/05/28 00:37:50;;;;;;;1.70;1.40;;;14.60;98.00;;;;;;5030892;28;20452;-67
2022/05/28 00:40:24;;;;;;;2.33;1.70;;;14.60;98.00;;;;;;5031067;28;20552;-67
2022/05/28 00:42:53;;;;;;;2.30;1.60;;;14.60;98.00;;;;;;5030891;28;20463;-67
2022/05/28 00:45:21;;;;;;;1.73;1.67;;;14.50;98.00;;;;;;5030954;28;20483;-66
2022/05/28 00:47:52;;;;;;;2.37;1.57;;;14.40;98.00;;;;;;5030937;28;20557;-66
2022/05/28 00:50:20;;;;;;;1.53;1.40;;;14.60;98.00;;;;;;5030930;28;20481;-66
2022/05/28 00:52:48;;;;;;;1.40;1.20;;;14.50;98.00;;;;;;5030435;28;20462;-66
2022/05/28 00:55:17;;;;;;;2.03;1.43;;;14.70;98.00;;;;;;5031081;28;20472;-66
2022/05/28 00:57:45;;;;;;;3.60;1.80;;;14.70;98.00;;;;;;5030526;28;20471;-66
2022/05/28 01:00:15;;;;;;;1.30;1.20;;;14.60;98.00;;;;;;5030883;28;20462;-66
2022/05/28 01:02:52;;;;;;;1.60;1.50;;;14.60;98.00;;;;;;5033063;28;20944;-66
2022/05/28 01:05:37;;;;;;;4.03;1.40;;;14.50;98.00;;;;;;5034648;28;20461;-66
2022/05/28 01:08:13;;;;;;;1.30;1.27;;;14.30;98.00;;;;;;5034472;28;20499;-66
2022/05/28 01:10:49;;;;;;;1.63;1.33;;;14.40;98.00;;;;;;5017632;28;20948;-66
2022/05/28 01:13:23;;;;;;;1.57;1.30;;;14.60;98.00;;;;;;5029779;28;20856;-66
2022/05/28 01:15:56;;;;;;;2.07;1.40;;;14.50;98.00;;;;;;5034430;28;20477;-66
2022/05/28 01:18:35;;;;;;;1.80;1.50;;;14.50;98.00;;;;;;5034278;28;20459;-66
2022/05/28 01:21:08;;;;;;;1.30;1.13;;;14.50;98.00;;;;;;5034284;28;20455;-66
2022/05/28 01:23:50;;;;;;;1.50;1.30;;;14.50;98.00;;;;;;5034330;28;20458;-66
2022/05/28 01:26:24;;;;;;;1.97;1.50;;;14.60;98.00;;;;;;5034362;28;20471;-66
2022/05/28 01:28:58;;;;;;;4.97;1.63;;;14.40;98.00;;;;;;5034459;28;20471;-66
2022/05/28 01:31:28;;;;;;;1.23;1.13;;;14.20;98.00;;;;;;5016633;28;20511;-66
2022/05/28 01:34:01;;;;;;;2.13;1.67;;;14.10;98.00;;;;;;5033985;28;20486;-66
2022/05/28 01:36:30;;;;;;;1.77;1.33;;;14.10;98.00;;;;;;5033587;28;20469;-66
2022/05/28 01:38:58;;;;;;;2.33;2.13;;;14.10;98.00;;;;;;5016712;28;20956;-66
2022/05/28 01:41:26;;;;;;;1.80;1.70;;;13.90;98.00;;;;;;5033746;28;20461;-66
2022/05/28 01:43:56;;;;;;;1.30;1.20;;;13.90;98.00;;;;;;5033892;28;20462;-66
2022/05/28 01:46:27;;;;;;;1.40;1.27;;;14.10;98.00;;;;;;5033657;28;20469;-66
2022/05/28 01:48:56;;;;;;;1.70;1.60;;;14.20;98.00;;;;;;5033696;28;20465;-66
2022/05/28 01:51:25;;;;;;;2.37;1.40;;;14.40;98.00;;;;;;5033655;28;20455;-66
2022/05/28 01:56:42;;;;;;;2.27;1.47;;;14.20;98.00;;;;;;5032963;28;20469;-66
2022/05/28 01:59:11;;;;;;;1.30;1.20;;;14.20;98.00;;;;;;5033619;28;20490;-66
2022/05/28 02:01:38;;;;;;;4.53;2.17;;;14.10;98.00;;;;;;5033418;28;20870;-66
2022/05/28 02:04:06;;;;;;;3.30;1.50;;;14.20;98.00;;;;;;5033360;28;20462;-66
2022/05/28 02:06:35;;;;;;;1.43;1.20;;;14.10;98.00;;;;;;5033094;28;20461;-66
2022/05/28 02:09:05;;;;;;;1.20;1.20;;;14.20;98.00;;;;;;5033383;28;20454;-66
2022/05/28 02:11:53;;;;;;;2.03;1.30;;;14.10;98.00;;;;;;5033372;28;20481;-66
2022/05/28 02:14:28;;;;;;;1.67;1.33;;;13.90;98.00;;;;;;5032810;28;20484;-66
2022/05/28 02:17:01;;;;;;;1.57;1.40;;;13.70;98.00;;;;;;5033119;28;20465;-66
2022/05/28 02:19:37;;;;;;;1.33;1.20;;;13.60;98.00;;;;;;5033164;28;20957;-66
2022/05/28 02:22:07;;;;;;;1.27;1.10;;;13.50;98.00;;;;;;5033232;28;20497;-66
2022/05/28 02:24:40;;;;;;;1.30;1.30;;;13.50;98.00;;;;;;5033160;28;20456;-66
2022/05/28 02:27:14;;;;;;;1.43;1.17;;;13.30;98.00;;;;;;5033260;28;20978;-66
2022/05/28 02:29:43;;;;;;;3.97;1.63;;;13.20;98.00;;;;;;5033244;28;20986;-66
2022/05/28 02:32:16;;;;;;;2.13;1.40;;;13.20;98.00;;;;;;5032983;28;20461;-66
2022/05/28 02:34:45;;;;;;;2.13;1.30;;;13.10;98.00;;;;;;5032965;28;20495;-66
2022/05/28 02:37:14;;;;;;;1.60;1.33;;;12.90;98.00;;;;;;5032693;28;20503;-66
2022/05/28 02:39:41;;;;;;;1.70;1.30;;;12.70;98.00;;;;;;5032527;28;20484;-66
2022/05/28 02:42:09;;;;;;;1.30;1.10;;;12.50;98.00;;;;;;5032717;28;20459;-66
2022/05/28 02:44:36;;;;;;;1.40;1.30;;;12.40;98.00;;;;;;5032752;28;20455;-66
2022/05/28 02:47:05;;;;;;;1.30;1.10;;;12.30;98.00;;;;;;5015021;28;20451;-66
2022/05/28 02:49:33;;;;;;;1.80;1.67;;;12.50;98.00;;;;;;5032551;28;20803;-66
2022/05/28 02:52:02;;;;;;;1.20;1.00;;;12.40;98.00;;;;;;5032356;28;20958;-66
2022/05/28 02:54:29;;;;;;;1.70;1.40;;;12.30;98.00;;;;;;5032628;28;20949;-66
2022/05/28 02:56:56;;;;;;;1.90;1.57;;;12.30;98.00;;;;;;5032164;28;20592;-66
2022/05/28 02:59:23;;;;;;;1.20;1.10;;;12.40;98.00;;;;;;5032361;28;20456;-66
2022/05/28 03:01:52;;;;;;;3.40;1.40;;;12.30;98.00;;;;;;5032187;28;20458;-66
2022/05/28 03:04:21;;;;;;;1.50;1.37;;;12.20;98.00;;;;;;5032469;28;20965;-66
2022/05/28 03:06:48;;;;;;;1.20;1.10;;;12.10;98.00;;;;;;5032106;28;20467;-66
2022/05/28 03:09:17;;;;;;;1.40;1.40;;;12.00;98.00;;;;;;5032260;28;20463;-66
2022/05/28 03:11:44;;;;;;;2.67;1.30;;;12.10;98.00;;;;;;5032043;28;20463;-66
2022/05/28 03:14:11;;;;;;;1.30;1.20;;;11.90;98.00;;;;;;5032291;28;20493;-66
2022/05/28 03:16:39;;;;;;;1.60;1.50;;;12.10;98.00;;;;;;5031924;28;20455;-66
2022/05/28 03:19:07;;;;;;;1.47;1.27;;;12.00;98.00;;;;;;5031820;28;20826;-66
2022/05/28 03:21:35;;;;;;;1.40;1.13;;;11.80;98.00;;;;;;5031874;28;20455;-66
2022/05/28 03:24:02;;;;;;;1.20;1.10;;;11.60;98.00;;;;;;5013691;28;20527;-66
2022/05/28 03:26:30;;;;;;;1.60;1.17;;;11.60;98.00;;;;;;5031847;28;20473;-66
2022/05/28 03:28:58;;;;;;;1.50;1.30;;;11.50;98.00;;;;;;5032186;28;20551;-66
2022/05/28 03:31:27;;;;;;;1.40;1.40;;;11.50;98.00;;;;;;5031859;28;20466;-66
2022/05/28 03:33:55;;;;;;;1.80;1.37;;;11.50;98.00;;;;;;5031759;28;20484;-66
2022/05/28 03:36:22;;;;;;;1.20;1.10;;;11.40;98.00;;;;;;5031760;28;20968;-66
2022/05/28 03:38:54;;;;;;;2.43;1.33;;;11.40;98.00;;;;;;5031763;28;20464;-66
2022/05/28 03:41:21;;;;;;;3.10;1.30;;;11.40;98.00;;;;;;5031498;28;20985;-66
2022/05/28 03:43:49;;;;;;;1.70;1.33;;;11.40;98.00;;;;;;5031563;28;20461;-66
2022/05/28 03:46:26;;;;;;;1.50;1.10;;;11.40;98.00;;;;;;5013834;28;20458;-66
2022/05/28 03:48:57;;;;;;;1.50;1.10;;;11.40;98.00;;;;;;5031494;28;20465;-66
2022/05/28 03:51:24;;;;;;;1.30;1.20;;;11.40;98.00;;;;;;5031459;28;20473;-66
2022/05/28 03:53:53;;;;;;;1.70;1.10;;;11.40;98.00;;;;;;5031319;28;20488;-66
2022/05/28 03:56:21;;;;;;;1.20;1.10;;;11.50;98.00;;;;;;5031277;28;20469;-66
2022/05/28 03:58:50;;;;;;;1.30;1.10;;;11.60;98.00;;;;;;5031286;28;20984;-66
2022/05/28 04:01:17;;;;;;;1.30;1.10;;;11.40;98.00;;;;;;5031314;28;20456;-66
2022/05/28 04:03:44;;;;;;;1.60;1.20;;;11.30;98.00;;;;;;5031173;28;20461;-66
2022/05/28 04:06:12;;;;;;;1.20;1.07;;;11.40;98.00;;;;;;5031238;28;20467;-66
2022/05/28 04:08:39;;;;;;;1.40;1.10;;;11.40;98.00;;;;;;5031307;28;21002;-66
2022/05/28 04:11:08;;;;;;;1.20;1.00;;;11.40;98.00;;;;;;5031241;28;20458;-66
2022/05/28 04:13:35;;;;;;;1.60;1.20;;;11.40;98.00;;;;;;5030978;28;20463;-66
2022/05/28 04:16:03;;;;;;;2.03;1.30;;;11.40;98.00;;;;;;5013766;28;20462;-66
2022/05/28 04:18:30;;;;;;;1.50;1.20;;;11.30;98.00;;;;;;5031108;28;20465;-66
2022/05/28 04:20:57;;;;;;;1.30;1.10;;;11.20;98.00;;;;;;5031147;28;20462;-66
2022/05/28 04:23:24;;;;;;;1.20;1.00;;;11.30;98.00;;;;;;5013472;28;20464;-66
2022/05/28 04:25:52;;;;;;;11.50;1.90;;;11.20;98.00;;;;;;4997234;28;21026;-66
2022/05/28 04:28:31;;;;;;;1.20;1.00;;;11.10;98.00;;;;;;5031462;28;20460;-66
2022/05/28 04:30:59;;;;;;;1.70;1.30;;;11.30;98.00;;;;;;5031255;28;20495;-66
2022/05/28 04:33:26;;;;;;;1.20;1.07;;;11.40;98.00;;;;;;5031076;28;20452;-66
2022/05/28 04:35:56;;;;;;;1.80;1.10;;;11.40;98.00;;;;;;5032146;28;20495;-66
2022/05/28 04:38:23;;;;;;;1.30;1.10;;;11.40;98.00;;;;;;5034944;28;20468;-66
2022/05/28 04:40:51;;;;;;;1.30;1.30;;;11.20;98.00;;;;;;5034947;28;20476;-66
2022/05/28 04:43:20;;;;;;;2.47;1.30;;;11.10;98.00;;;;;;5035039;28;20452;-66
2022/05/28 04:45:47;;;;;;;1.40;1.10;;;11.10;98.00;;;;;;5034842;28;20465;-66
2022/05/28 04:48:15;;;;;;;1.63;1.30;;;11.00;98.00;;;;;;5034733;28;20462;-66
2022/05/28 04:50:42;;;;;;;2.53;1.70;;;11.10;98.00;;;;;;5034855;28;20714;-66
2022/05/28 04:53:10;;;;;;;2.33;1.33;;;11.10;98.00;;;;;;5034780;28;20469;-66
2022/05/28 04:55:39;;;;;;;15.73;1.53;;;11.10;98.00;;;;;;5017139;28;20484;-66
2022/05/28 04:58:06;;;;;;;1.50;1.00;;;11.00;98.00;;;;;;5017258;28;20892;-66
2022/05/28 05:00:35;;;;;;;2.70;1.50;;;11.20;98.00;;;;;;5034689;28;21007;-66
2022/05/28 05:03:02;;;;;;;1.30;1.20;;;11.40;98.00;;;;;;5034552;28;20794;-66
2022/05/28 05:05:29;;;;;;;1.83;1.30;;;11.60;98.00;;;;;;5034379;28;20474;-66
2022/05/28 05:07:56;;;;;;;1.87;1.30;;;11.60;98.00;;;;;;5034448;28;20454;-66
2022/05/28 05:10:23;;;;;;;1.70;1.07;;;11.70;98.00;;;;;;5034395;28;20459;-66
2022/05/28 05:12:52;;;;;;;1.50;1.10;;;11.80;98.00;;;;;;5034309;28;20457;-66
2022/05/28 05:15:19;;;;;;;1.60;1.37;;;11.80;98.00;;;;;;5034372;28;20514;-66
2022/05/28 05:17:48;;;;;;;2.60;1.80;;;11.90;98.00;;;;;;5034170;28;20975;-66
2022/05/28 05:20:17;;;;;;;1.37;1.13;;;12.10;98.00;;;;;;5034427;28;20470;-66
2022/05/28 05:22:44;;;;;;;1.30;1.10;;;12.20;98.00;;;;;;5034023;28;20461;-66
2022/05/28 05:25:14;;;;;;;1.20;0.90;;;12.20;98.00;;;;;;5016845;28;20461;-66
2022/05/28 05:27:43;;;;;;;1.53;1.20;;;12.40;98.00;;;;;;5016602;28;20470;-66
2022/05/28 05:30:12;;;;;;;1.30;1.10;;;12.50;98.00;;;;;;5034246;28;20546;-66
2022/05/28 05:32:39;;;;;;;1.50;1.10;;;12.60;98.00;;;;;;5016381;28;20476;-66
2022/05/28 05:35:09;;;;;;;1.30;1.20;;;12.80;98.00;;;;;;5033968;28;20481;-66
2022/05/28 05:37:36;;;;;;;1.20;1.10;;;12.90;98.00;;;;;;5033774;28;20453;-66
2022/05/28 05:40:03;;;;;;;2.47;1.50;;;13.00;98.00;;;;;;5033911;28;20459;-66
2022/05/28 05:42:31;;;;;;;1.60;1.30;;;12.70;98.00;;;;;;5033978;28;20469;-66
2022/05/28 05:44:59;;;;;;;2.03;1.10;;;12.70;98.00;;;;;;5016323;28;20448;-66
2022/05/28 05:47:26;;;;;;;1.30;1.10;;;12.80;98.00;;;;;;5015282;28;20457;-66
2022/05/28 05:49:53;;;;;;;1.23;1.10;;;12.70;98.00;;;;;;5016217;28;20465;-66
2022/05/28 05:52:27;;;;;;;1.20;1.00;;;12.90;98.00;;;;;;5033636;28;20463;-66
2022/05/28 05:54:54;;;;;;;1.40;1.30;;;12.80;98.00;;;;;;5033562;28;20987;-66
2022/05/28 05:57:21;;;;;;;2.13;1.30;;;12.90;98.00;;;;;;5033157;28;20476;-66
2022/05/28 05:59:48;;;;;;;5.17;1.43;;;12.90;98.00;;;;;;5033245;28;20465;-66
2022/05/28 06:02:16;;;;;;;4.50;1.93;;;13.00;98.00;;;;;;5015872;28;20857;-66
2022/05/28 06:04:43;;;;;;;1.20;1.03;;;12.80;98.00;;;;;;5033561;28;20455;-66
2022/05/28 06:07:10;;;;;;;1.20;1.00;;;13.00;98.00;;;;;;5015823;28;20460;-66
2022/05/28 06:09:39;;;;;;;1.30;1.13;;;13.10;98.00;;;;;;5033401;28;20498;-66
2022/05/28 06:12:07;;;;;;;1.80;1.67;;;13.30;98.00;;;;;;5033058;28;20466;-66
2022/05/28 06:14:34;;;;;;;2.50;1.73;;;13.40;98.00;;;;;;5033176;28;20489;-66
2022/05/28 06:17:01;;;;;;;1.30;1.10;;;13.60;98.00;;;;;;5033142;28;20462;-66
2022/05/28 06:19:28;;;;;;;1.20;1.00;;;13.70;98.00;;;;;;5033078;28;20452;-66
2022/05/28 06:21:59;;;;;;;3.63;1.10;;;13.80;98.00;;;;;;5033095;28;20467;-66
2022/05/28 06:24:27;;;;;;;1.20;1.10;;;13.80;98.00;;;;;;5033118;28;20954;-66
2022/05/28 06:26:59;;;;;;;1.20;0.90;;;13.70;98.00;;;;;;5033050;28;20460;-66
2022/05/28 06:29:27;;;;;;;1.50;1.20;;;13.70;98.00;;;;;;5033391;28;20458;-66
2022/05/28 06:31:55;;;;;;;1.30;1.23;;;13.80;98.00;;;;;;5033827;28;20472;-66
2022/05/28 06:34:22;;;;;;;1.30;1.00;;;13.80;98.00;;;;;;5015911;28;20496;-66
2022/05/28 06:36:50;;;;;;;11.97;1.93;;;13.90;98.00;;;;;;5033510;28;20464;-61
2022/05/28 06:39:17;;;;;;;1.60;1.10;;;13.90;98.00;;;;;;5033511;28;20494;-61
2022/05/28 06:41:44;;;;;;;1.20;1.00;;;13.90;98.00;;;;;;5033285;28;20550;-62
2022/05/28 06:44:13;;;;;;;1.20;1.10;;;14.00;98.00;;;;;;5033467;28;20454;-62
2022/05/28 06:46:40;;;;;;;1.40;1.10;;;14.10;98.00;;;;;;5033054;28;20468;-62
2022/05/28 06:49:08;;;;;;;1.20;1.10;;;14.20;98.00;;;;;;5033423;28;20462;-62
2022/05/28 06:51:36;;;;;;;1.90;1.63;;;14.30;98.00;;;;;;5033125;28;20471;-62
2022/05/28 06:54:04;;;;;;;1.40;1.37;;;14.40;98.00;;;;;;5033287;28;20453;-62
2022/05/28 06:56:31;;;;;;;1.20;1.00;;;14.40;98.00;;;;;;5032974;28;20904;-62
2022/05/28 06:58:58;;;;;;;1.20;1.10;;;14.40;97.00;;;;;;5032871;28;20458;-62
2022/05/28 07:01:26;;;;;;;1.20;1.00;;;14.40;97.50;;;;;;5033083;28;20462;-62
2022/05/28 07:03:53;;;;;;;1.30;1.00;;;14.40;98.00;;;;;;5015312;28;21027;-62
2022/05/28 07:06:21;;;;;;;1.20;1.10;;;14.50;98.00;;;;;;5033024;28;20458;-62
2022/05/28 07:08:48;;;;;;;3.00;1.50;;;14.40;96.70;;;;;;5032979;28;20456;-62
2022/05/28 07:11:16;;;;;;;1.30;1.10;;;14.40;97.80;;;;;;5033147;28;20828;-62
2022/05/28 07:13:43;;;;;;;1.20;1.03;;;14.50;98.00;;;;;;5032940;28;20494;-62
2022/05/28 07:16:11;;;;;;;1.63;1.10;;;14.60;98.00;;;;;;5033089;28;20484;-62
2022/05/28 07:18:43;;;;;;;1.60;1.30;;;14.70;98.00;;;;;;5032826;28;20848;-61
2022/05/28 07:21:12;;;;;;;2.47;1.17;;;14.70;98.00;;;;;;5032985;28;20468;-62
2022/05/28 07:23:39;;;;;;;1.40;1.30;;;14.80;97.40;;;;;;5032777;28;20451;-62
2022/05/28 07:26:08;;;;;;;1.30;1.20;;;14.90;98.00;;;;;;5032842;28;20459;-62
2022/05/28 07:28:41;;;;;;;1.30;1.20;;;15.00;97.40;;;;;;5032600;28;20462;-62
2022/05/28 07:31:10;;;;;;;1.20;1.20;;;15.10;96.20;;;;;;5032614;28;20474;-62
2022/05/28 07:33:41;;;;;;;1.40;1.30;;;15.10;95.60;;;;;;5032590;28;20503;-62
2022/05/28 07:36:10;;;;;;;1.73;1.07;;;15.10;95.70;;;;;;5032585;28;20483;-62
2022/05/28 07:38:38;;;;;;;1.90;1.50;;;15.10;95.30;;;;;;5032119;28;20467;-62
2022/05/28 07:41:07;;;;;;;1.20;1.10;;;15.20;95.50;;;;;;5032266;28;20444;-62
2022/05/28 07:43:35;;;;;;;1.40;1.10;;;15.30;95.50;;;;;;5032206;28;20479;-62
2022/05/28 07:46:03;;;;;;;1.20;1.00;;;15.40;93.20;;;;;;5032281;28;20469;-62
2022/05/28 07:48:30;;;;;;;1.20;1.00;;;15.40;92.50;;;;;;5032269;28;20470;-62
2022/05/28 07:50:58;;;;;;;1.20;1.17;;;15.40;91.30;;;;;;5032252;28;20855;-62
2022/05/28 07:53:26;;;;;;;1.50;1.30;;;15.50;90.70;;;;;;5032120;28;20507;-62
2022/05/28 07:55:53;;;;;;;1.20;1.00;;;15.20;90.30;;;;;;5031788;28;20489;-62
2022/05/28 07:58:20;;;;;;;1.73;1.40;;;15.10;91.30;;;;;;5028791;28;20930;-62
2022/05/28 08:00:50;;;;;;;1.20;1.00;;;15.30;95.20;;;;;;5011876;28;20900;-61
2022/05/28 08:03:18;;;;;;;1.67;1.30;;;15.50;93.40;;;;;;5029411;28;20460;-62
2022/05/28 08:05:47;;;;;;;2.00;1.87;;;15.60;92.30;;;;;;5029242;28;20509;-62
2022/05/28 08:08:16;;;;;;;1.20;1.00;;;15.70;93.30;;;;;;5015370;28;20466;-61
2022/05/28 08:10:44;;;;;;;3.00;1.20;;;15.90;90.60;;;;;;5029564;28;20464;-61
2022/05/28 08:13:14;;;;;;;5.00;1.27;;;15.90;93.90;;;;;;5029678;28;20866;-62
2022/05/28 08:15:43;;;;;;;1.50;1.30;;;15.90;88.40;;;;;;5012044;28;20484;-62
2022/05/28 08:18:12;;;;;;;1.50;1.30;;;15.80;89.90;;;;;;5029443;28;20959;-62
2022/05/28 08:23:25;;;;;;;1.20;1.10;;;15.80;88.90;;;;;;5021456;28;20439;-62
2022/05/28 08:25:52;;;;;;;2.80;1.43;;;15.80;89.60;;;;;;5029135;28;20795;-61
2022/05/28 08:28:21;;;;;;;1.20;1.00;;;15.90;88.80;;;;;;5029080;28;20458;-62
2022/05/28 08:30:49;;;;;;;1.20;1.10;;;15.90;90.50;;;;;;5028577;28;20467;-61
2022/05/28 08:33:18;;;;;;;1.83;1.47;;;16.10;89.00;;;;;;5028854;28;20973;-62
2022/05/28 08:35:46;;;;;;;1.97;1.40;;;16.20;89.00;;;;;;5028780;28;20858;-62
2022/05/28 08:38:15;;;;;;;1.80;1.30;;;16.20;89.40;;;;;;5028997;28;20469;-62
2022/05/28 08:40:46;;;;;;;1.70;1.60;;;16.30;88.00;;;;;;5029060;28;20465;-64
2022/05/28 08:43:16;;;;;;;1.23;1.00;;;16.40;88.80;;;;;;5029505;28;20947;-61
2022/05/28 08:45:44;;;;;;;1.53;1.23;;;16.60;89.40;;;;;;5028781;28;20474;-61
2022/05/28 08:48:17;;;;;;;1.40;1.20;;;16.80;89.70;;;;;;5028631;28;20463;-62
2022/05/28 08:50:51;;;;;;;1.30;1.00;;;17.00;87.70;;;;;;5010049;28;20466;-62
2022/05/28 08:53:24;;;;;;;1.27;1.10;;;16.90;87.30;;;;;;5028227;28;20468;-61
2022/05/28 08:55:53;;;;;;;1.20;1.10;;;16.90;87.50;;;;;;5013297;28;20492;-62
2022/05/28 08:58:25;;;;;;;1.70;1.20;;;16.80;86.20;;;;;;5031471;28;20469;-61
2022/05/28 09:00:56;;;;;;;1.30;1.20;;;16.80;87.80;;;;;;5031517;28;20470;-62
2022/05/28 09:03:28;;;;;;;7.33;1.60;;;16.90;87.10;;;;;;5030786;28;20469;-62
2022/05/28 09:06:01;;;;;;;1.30;1.30;;;16.90;84.20;;;;;;5031462;28;20456;-61
2022/05/28 09:08:31;;;;;;;1.20;1.07;;;16.80;86.40;;;;;;5029935;28;20468;-62
2022/05/28 09:11:03;;;;;;;1.20;1.00;;;16.80;89.10;;;;;;5028150;28;20509;-62
2022/05/28 09:13:38;;;;;;;1.63;1.53;;;16.70;86.60;;;;;;5028423;28;20470;-62
2022/05/28 09:16:08;;;;;;;1.50;1.13;;;16.70;88.80;;;;;;5028803;28;20520;-61
2022/05/28 09:18:38;;;;;;;1.20;1.00;;;16.90;88.40;;;;;;5011302;28;20470;-61
2022/05/28 09:21:10;;;;;;;1.30;1.27;;;16.90;87.10;;;;;;5030859;28;20787;-62
2022/05/28 09:23:43;;;;;;;1.50;1.27;;;16.80;87.20;;;;;;5016409;28;20464;-61
2022/05/28 09:26:14;;;;;;;1.37;1.10;;;16.80;88.30;;;;;;5035211;28;20454;-62
2022/05/28 09:28:58;;;;;;;1.20;1.10;;;17.00;91.10;;;;;;5017701;28;20451;-61
2022/05/28 09:31:41;;;;;;;2.00;1.20;;;17.30;89.50;;;;;;5035233;28;20458;-61
2022/05/28 09:34:27;;;;;;;6.50;1.73;;;17.40;87.30;;;;;;5034761;28;20465;-61
2022/05/28 09:37:02;;;;;;;1.20;1.07;;;17.30;86.10;;;;;;5034762;28;20486;-61
2022/05/28 09:39:44;;;;;;;1.60;1.10;;;17.00;86.30;;;;;;5034710;28;20479;-62
2022/05/28 09:42:21;;;;;;;1.53;1.20;;;16.80;87.60;;;;;;5017856;28;20460;-61
2022/05/28 09:45:12;;;;;;;1.20;1.17;;;16.90;88.00;;;;;;5034399;28;20464;-61
2022/05/28 09:47:47;;;;;;;1.30;1.20;;;17.20;88.60;;;;;;5031460;28;20469;-61
2022/05/28 09:50:22;;;;;;;1.20;1.00;;;17.30;85.20;;;;;;5016705;28;20835;-61
2022/05/28 09:56:06;;;;;;;1.50;1.33;;;17.40;88.00;;;;;;5034180;28;21083;-61
2022/05/28 09:58:39;;;;;;;2.70;1.20;;;17.70;86.90;;;;;;5034255;28;20465;-61
2022/05/28 10:01:12;;;;;;;1.30;1.10;;;17.90;87.40;;;;;;5017075;28;20454;-62
2022/05/28 10:06:28;;;;;;;1.50;1.20;;;17.80;84.90;;;;;;5034248;28;20440;-62
2022/05/28 10:08:56;;;;;;;1.60;1.10;;;17.70;86.70;;;;;;5033942;28;20491;-61
2022/05/28 10:11:24;;;;;;;1.30;1.20;;;17.90;86.10;;;;;;5016694;28;20455;-61
2022/05/28 10:13:56;;;;;;;1.20;1.10;;;18.30;83.40;;;;;;5034017;28;20465;-61
2022/05/28 10:16:25;;;;;;;1.30;1.20;;;18.20;82.70;;;;;;5034040;28;20482;-61
2022/05/28 10:18:56;;;;;;;1.43;1.10;;;18.20;84.00;;;;;;5033960;28;20462;-61
2022/05/28 10:21:31;;;;;;;1.60;1.20;;;18.20;84.00;;;;;;5034111;28;20490;-61
2022/05/28 10:24:01;;;;;;;1.80;1.33;;;18.10;81.10;;;;;;5033827;28;20466;-61
2022/05/28 10:26:41;;;;;;;1.30;1.13;;;18.00;83.10;;;;;;5034129;28;20528;-62
2022/05/28 10:29:19;;;;;;;1.20;1.10;;;17.90;83.60;;;;;;5018119;28;20481;-61
2022/05/28 10:31:48;;;;;;;1.20;1.10;;;17.70;84.50;;;;;;5033793;28;20466;-62
2022/05/28 10:34:31;;;;;;;1.30;1.07;;;17.70;86.80;;;;;;5033425;28;20813;-61
2022/05/28 10:37:10;;;;;;;1.20;1.13;;;17.80;83.20;;;;;;5033517;28;20501;-61
2022/05/28 10:39:38;;;;;;;1.20;1.00;;;18.00;84.30;;;;;;5033551;28;20455;-61
2022/05/28 10:42:09;;;;;;;1.20;1.20;;;17.90;82.10;;;;;;5033506;28;20486;-61
2022/05/28 10:44:38;;;;;;;1.30;1.13;;;17.90;82.50;;;;;;5033391;28;20469;-61
2022/05/28 10:47:30;;;;;;;3.00;1.33;;;17.90;84.30;;;;;;5033532;28;21149;-61
2022/05/28 10:50:09;;;;;;;1.30;1.10;;;18.10;84.50;;;;;;5021911;28;20459;-61
2022/05/28 10:52:50;;;;;;;2.07;1.33;;;18.30;83.90;;;;;;5032787;28;20459;-61
2022/05/28 10:55:24;;;;;;;1.60;1.37;;;18.60;82.80;;;;;;5014854;28;20467;-61
2022/05/28 10:58:06;;;;;;;1.63;1.27;;;18.80;80.90;;;;;;5029129;28;20497;-62
2022/05/28 11:00:46;;;;;;;2.23;1.37;;;19.10;82.40;;;;;;5029571;28;20467;-62
2022/05/28 11:03:39;;;;;;;1.40;1.20;;;19.30;81.20;;;;;;5030298;28;20465;-62
2022/05/28 11:06:39;;;;;;;1.53;1.30;;;19.40;81.60;;;;;;5023024;28;20556;-61
2022/05/28 11:09:18;;;;;;;1.53;1.20;;;19.30;78.40;;;;;;5029989;28;20463;-61
2022/05/28 11:12:04;;;;;;;1.20;1.10;;;19.30;79.60;;;;;;5029967;28;20463;-61
2022/05/28 11:14:52;;;;;;;1.30;1.17;;;19.30;79.80;;;;;;5029865;28;20463;-63
2022/05/28 11:17:43;;;;;;;1.40;1.20;;;19.10;78.60;;;;;;5029571;28;20505;-61
2022/05/28 11:20:19;;;;;;;1.60;1.40;;;18.60;81.30;;;;;;5029557;28;20459;-61
2022/05/28 11:23:13;;;;;;;2.23;1.77;;;18.70;83.20;;;;;;5029387;28;20520;-62
2022/05/28 11:25:57;;;;;;;1.23;1.13;;;18.90;82.50;;;;;;5029749;28;20458;-63
2022/05/28 11:28:39;;;;;;;1.70;1.30;;;18.90;83.40;;;;;;5013330;28;20462;-61
2022/05/28 11:31:13;;;;;;;1.30;1.10;;;19.00;82.00;;;;;;5029483;28;20940;-61
2022/05/28 11:33:46;;;;;;;1.30;1.20;;;18.80;82.50;;;;;;5029266;28;20467;-61
2022/05/28 11:36:21;;;;;;;1.23;1.23;;;19.00;83.50;;;;;;5029300;28;20478;-62
2022/05/28 11:38:54;;;;;;;1.30;1.30;;;19.50;80.60;;;;;;5029238;28;20507;-62
2022/05/28 11:41:26;;;;;;;1.37;1.30;;;19.90;78.80;;;;;;5029244;28;20462;-62
2022/05/28 11:43:59;;;;;;;1.50;1.13;;;20.20;77.40;;;;;;5029268;28;20455;-62
2022/05/28 11:46:33;;;;;;;1.30;1.20;;;20.50;74.00;;;;;;5028443;28;20458;-61
2022/05/28 11:51:56;;;;;;;1.33;1.30;;;20.50;75.50;;;;;;5028410;28;20457;-61
2022/05/28 11:54:29;;;;;;;1.60;1.40;;;20.50;73.50;;;;;;5029161;28;20454;-60
2022/05/28 11:57:03;;;;;;;1.30;1.30;;;20.60;73.50;;;;;;5028857;28;20548;-61
2022/05/28 11:59:32;;;;;;;1.40;1.20;;;20.60;73.30;;;;;;5028813;28;21026;-61
2022/05/28 12:02:04;;;;;;;1.33;1.27;;;20.70;73.00;;;;;;5028664;28;20493;-61
2022/05/28 12:04:39;;;;;;;2.70;1.23;;;20.90;74.60;;;;;;5028916;28;20447;-61
2022/05/28 12:07:11;;;;;;;1.23;1.13;;;21.00;74.00;;;;;;5028945;28;20454;-62
2022/05/28 12:09:44;;;;;;;1.37;1.23;;;21.40;76.80;;;;;;5011125;28;20495;-62
2022/05/28 12:12:19;;;;;;;2.70;1.47;;;21.80;72.60;;;;;;5028817;28;20458;-61
2022/05/28 12:14:48;;;;;;;1.47;1.47;;;22.00;72.00;;;;;;4996379;28;20524;-61
2022/05/28 12:17:30;;;;;;;1.70;1.40;;;22.30;71.80;;;;;;5028590;28;20497;-61
2022/05/28 12:20:00;;;;;;;1.50;1.30;;;22.50;70.90;;;;;;5028772;28;20486;-62
2022/05/28 12:22:31;;;;;;;1.50;1.30;;;22.80;69.30;;;;;;5029012;28;20459;-61
2022/05/28 12:25:08;;;;;;;2.57;1.50;;;22.70;69.70;;;;;;5030878;28;20466;-61
2022/05/28 12:27:44;;;;;;;1.30;1.27;;;22.20;71.00;;;;;;5031046;28;20496;-61
2022/05/28 12:30:29;;;;;;;1.47;1.40;;;21.60;70.40;;;;;;5031135;28;20469;-61
2022/05/28 12:32:58;;;;;;;1.70;1.30;;;21.60;72.50;;;;;;5031073;28;20538;-61
2022/05/28 12:35:39;;;;;;;1.97;1.57;;;22.00;71.70;;;;;;5031236;28;20553;-61
2022/05/28 12:38:18;;;;;;;1.37;1.10;;;22.10;70.80;;;;;;5031215;28;20566;-61
2022/05/28 12:40:54;;;;;;;1.20;1.20;;;21.90;72.70;;;;;;5031071;28;20547;-62
2022/05/28 12:43:29;;;;;;;1.97;1.47;;;21.60;72.50;;;;;;5014176;28;20486;-62
2022/05/28 12:45:58;;;;;;;1.57;1.33;;;21.20;71.80;;;;;;5030895;28;20551;-61
2022/05/28 12:48:29;;;;;;;1.50;1.40;;;20.60;71.40;;;;;;5030763;28;20469;-61
2022/05/28 12:51:25;;;;;;;2.13;1.30;;;20.20;72.60;;;;;;5013800;28;20459;-61
2022/05/28 12:53:54;;;;;;;2.40;1.93;;;19.90;76.80;;;;;;5030881;28;20485;-61
2022/05/28 12:56:27;;;;;;;3.70;1.50;;;20.10;75.40;;;;;;5031026;28;20490;-61
2022/05/28 12:59:08;;;;;;;2.03;1.43;;;20.10;75.70;;;;;;5035063;28;20459;-61
2022/05/28 13:01:38;;;;;;;1.50;1.17;;;20.00;75.00;;;;;;5035456;28;20878;-61
2022/05/28 13:04:12;;;;;;;1.87;1.30;;;19.90;75.70;;;;;;5034885;28;20462;-61
2022/05/28 13:06:48;;;;;;;2.30;1.40;;;19.80;75.70;;;;;;5035013;28;20873;-61
2022/05/28 13:09:16;;;;;;;1.57;1.20;;;19.70;77.00;;;;;;5035087;28;21028;-61
2022/05/28 13:11:47;;;;;;;1.40;1.30;;;20.20;79.00;;;;;;5035269;28;20858;-61
2022/05/28 13:14:58;;;;;;;1.20;1.17;;;20.50;75.30;;;;;;5035318;28;20573;-61
2022/05/28 13:17:42;;;;;;;2.37;1.43;;;20.30;75.20;;;;;;5035205;28;20494;-60
2022/05/28 13:20:23;;;;;;;1.47;1.27;;;20.10;75.90;;;;;;5035139;28;20454;-61